Hlavní strana
METAR-TAF:

METAR-TAF

Letiště :

Larnaka, Kypr

Letiště Larnaka

zeměpisná šířka: 34-53N, zeměpisná délka: 033-38E, výška: 2 m

Aktuální stav počasí

Zpráva byla vytvořena před 44 minutami, v 12:30 UTC
Jihojihozápadní vítr 13 kt
Teplota 26°C
Vlhkost vzduchu 21%
Tlak 1014 hPa
Viditelnost 10 km a více
Skoro jasno ve výšce 3000 ft

METAR: LCLK 231230Z 20013KT 9999 FEW030 26/02 Q1014 NOSIG

Čas: 16:14 (13:14 UTC)

Předpověď počasí

Zpráva byla vytvořena před 1 hodinou a 44 minutami, v 11:30 UTC
Předpověď platná od 23 v 12 UTC do 24 v 12 UTC
Jihojihozápadní vítr 15 kt
Viditelnost 10 km a více
Skoro jasno ve výšce 2500 ft
Změna
od 23 v 18 UTC do 23 v 20 UTC
Severozápadní vítr 6 kt
Změna
od 24 v 09 UTC do 24 v 12 UTC
Jižní vítr 10 kt

TAF: LCLK 231130Z 2312/2412 20015KT 9999 FEW025 BECMG 2318/2320 32006KT BECMG 2409/2412 17010KT

Stav a předpovědi počasí z více než 4 000 letišť (zprávy METAR a TAF).

Červené a žluté tečky na mapě představují dostupné meteorologické stanice.

Když kurzor umístíte na tečku, zobrazí se název stanice.

Pak kliknutím zobrazíte stav a předpověď počasí.

Chcete-li změnit mapu, kliknutím na zelené tlačítko se znaménkem +mapu přiblížíte, kliknutím na zelené tlačítko se znaménkem – mapu oddálíte a kliknutím na zelené šipky přejdete na sousední mapy.


METAR-TAF: